sensor_id;sensor_type;location;lat;lon;timestamp;pressure;altitude;pressure_sealevel;temperature;humidity
40245;BME280;25963;42.694;23.600;2023-11-21T00:01:16;95044.78;;;2.71;100.00
40245;BME280;25963;42.694;23.600;2023-11-21T00:03:42;95026.03;;;2.53;100.00
40245;BME280;25963;42.694;23.600;2023-11-21T00:06:08;95044.56;;;2.58;100.00
40245;BME280;25963;42.694;23.600;2023-11-21T00:08:37;95056.50;;;2.76;100.00
40245;BME280;25963;42.694;23.600;2023-11-21T00:11:02;95063.31;;;2.85;100.00
40245;BME280;25963;42.694;23.600;2023-11-21T00:13:30;95056.19;;;2.79;100.00
40245;BME280;25963;42.694;23.600;2023-11-21T00:15:56;95079.44;;;2.80;100.00
40245;BME280;25963;42.694;23.600;2023-11-21T00:18:21;95072.16;;;2.76;100.00
40245;BME280;25963;42.694;23.600;2023-11-21T00:20:47;95045.03;;;2.62;100.00
40245;BME280;25963;42.694;23.600;2023-11-21T00:23:12;95070.94;;;2.86;100.00
40245;BME280;25963;42.694;23.600;2023-11-21T00:25:37;95066.59;;;2.79;100.00
40245;BME280;25963;42.694;23.600;2023-11-21T00:28:03;95053.84;;;2.84;100.00
40245;BME280;25963;42.694;23.600;2023-11-21T00:30:29;95080.78;;;2.99;100.00
40245;BME280;25963;42.694;23.600;2023-11-21T00:32:56;95053.84;;;2.84;100.00
40245;BME280;25963;42.694;23.600;2023-11-21T00:35:21;95061.31;;;2.87;100.00
40245;BME280;25963;42.694;23.600;2023-11-21T00:37:47;95078.88;;;2.93;100.00
40245;BME280;25963;42.694;23.600;2023-11-21T00:40:15;95077.84;;;3.02;100.00
40245;BME280;25963;42.694;23.600;2023-11-21T00:42:41;95078.47;;;3.04;100.00
40245;BME280;25963;42.694;23.600;2023-11-21T00:45:07;95045.88;;;2.85;100.00
40245;BME280;25963;42.694;23.600;2023-11-21T00:47:33;95032.88;;;2.77;100.00
40245;BME280;25963;42.694;23.600;2023-11-21T00:49:58;95047.94;;;2.90;100.00
40245;BME280;25963;42.694;23.600;2023-11-21T00:52:24;95056.09;;;2.87;100.00
40245;BME280;25963;42.694;23.600;2023-11-21T00:54:50;95060.00;;;2.91;100.00
40245;BME280;25963;42.694;23.600;2023-11-21T00:57:15;95041.22;;;2.72;100.00
40245;BME280;25963;42.694;23.600;2023-11-21T00:59:41;95039.25;;;2.74;100.00
40245;BME280;25963;42.694;23.600;2023-11-21T01:02:06;95044.56;;;2.81;100.00
40245;BME280;25963;42.694;23.600;2023-11-21T01:04:35;95024.16;;;2.70;100.00
40245;BME280;25963;42.694;23.600;2023-11-21T01:07:01;95048.84;;;3.05;100.00
40245;BME280;25963;42.694;23.600;2023-11-21T01:09:26;95030.41;;;3.07;100.00
40245;BME280;25963;42.694;23.600;2023-11-21T01:11:53;95035.69;;;3.22;100.00
40245;BME280;25963;42.694;23.600;2023-11-21T01:14:19;95035.38;;;3.16;100.00
40245;BME280;25963;42.694;23.600;2023-11-21T01:16:44;95047.38;;;3.26;100.00
40245;BME280;25963;42.694;23.600;2023-11-21T01:19:10;95029.25;;;3.09;100.00
40245;BME280;25963;42.694;23.600;2023-11-21T01:21:35;95053.28;;;3.19;100.00
40245;BME280;25963;42.694;23.600;2023-11-21T01:24:00;95044.31;;;3.22;100.00
40245;BME280;25963;42.694;23.600;2023-11-21T01:26:26;95048.50;;;3.08;100.00
40245;BME280;25963;42.694;23.600;2023-11-21T01:28:51;95037.47;;;2.98;100.00
40245;BME280;25963;42.694;23.600;2023-11-21T01:31:17;95051.84;;;2.94;100.00
40245;BME280;25963;42.694;23.600;2023-11-21T01:33:42;95046.91;;;2.99;100.00
40245;BME280;25963;42.694;23.600;2023-11-21T01:36:08;95049.19;;;3.02;100.00
40245;BME280;25963;42.694;23.600;2023-11-21T01:38:34;95051.25;;;3.07;100.00
40245;BME280;25963;42.694;23.600;2023-11-21T01:41:00;95052.59;;;3.03;100.00
40245;BME280;25963;42.694;23.600;2023-11-21T01:43:26;95019.69;;;2.79;100.00
40245;BME280;25963;42.694;23.600;2023-11-21T01:45:53;95023.00;;;2.72;100.00
40245;BME280;25963;42.694;23.600;2023-11-21T01:48:19;95057.16;;;3.01;100.00
40245;BME280;25963;42.694;23.600;2023-11-21T01:50:44;95061.28;;;2.95;100.00
40245;BME280;25963;42.694;23.600;2023-11-21T01:53:12;95040.53;;;2.79;100.00
40245;BME280;25963;42.694;23.600;2023-11-21T01:55:39;95044.34;;;2.68;100.00
40245;BME280;25963;42.694;23.600;2023-11-21T01:58:05;95050.56;;;2.59;100.00
40245;BME280;25963;42.694;23.600;2023-11-21T02:00:33;95029.88;;;2.26;100.00
40245;BME280;25963;42.694;23.600;2023-11-21T02:02:58;95053.72;;;2.46;100.00
40245;BME280;25963;42.694;23.600;2023-11-21T02:05:24;95051.72;;;2.56;100.00
40245;BME280;25963;42.694;23.600;2023-11-21T02:07:51;95024.41;;;2.52;100.00
40245;BME280;25963;42.694;23.600;2023-11-21T02:10:18;95039.69;;;2.55;100.00
40245;BME280;25963;42.694;23.600;2023-11-21T02:12:48;95014.75;;;2.29;100.00
40245;BME280;25963;42.694;23.600;2023-11-21T02:15:16;95023.84;;;2.34;100.00
40245;BME280;25963;42.694;23.600;2023-11-21T02:17:46;95025.16;;;2.29;100.00
40245;BME280;25963;42.694;23.600;2023-11-21T02:20:13;95025.72;;;2.09;100.00
40245;BME280;25963;42.694;23.600;2023-11-21T02:25:11;95038.34;;;2.28;100.00
40245;BME280;25963;42.694;23.600;2023-11-21T02:27:37;95036.78;;;2.11;100.00
40245;BME280;25963;42.694;23.600;2023-11-21T02:30:03;95047.63;;;2.31;100.00
40245;BME280;25963;42.694;23.600;2023-11-21T02:32:29;95027.97;;;2.20;100.00
40245;BME280;25963;42.694;23.600;2023-11-21T02:34:56;95043.69;;;2.35;100.00
40245;BME280;25963;42.694;23.600;2023-11-21T02:37:26;95027.84;;;2.05;100.00
40245;BME280;25963;42.694;23.600;2023-11-21T02:39:51;95045.72;;;2.16;100.00
40245;BME280;25963;42.694;23.600;2023-11-21T02:42:17;95036.91;;;2.17;100.00
40245;BME280;25963;42.694;23.600;2023-11-21T02:44:43;95032.69;;;2.24;100.00
40245;BME280;25963;42.694;23.600;2023-11-21T02:47:09;95024.56;;;2.11;100.00
40245;BME280;25963;42.694;23.600;2023-11-21T02:49:35;95037.03;;;2.24;100.00
40245;BME280;25963;42.694;23.600;2023-11-21T02:52:02;95036.00;;;2.02;100.00
40245;BME280;25963;42.694;23.600;2023-11-21T02:54:27;95043.41;;;2.21;100.00
40245;BME280;25963;42.694;23.600;2023-11-21T02:56:53;95029.09;;;2.25;100.00
40245;BME280;25963;42.694;23.600;2023-11-21T02:59:18;95041.09;;;2.26;100.00
40245;BME280;25963;42.694;23.600;2023-11-21T03:01:45;95046.97;;;2.20;100.00
40245;BME280;25963;42.694;23.600;2023-11-21T03:04:11;95034.34;;;2.09;100.00
40245;BME280;25963;42.694;23.600;2023-11-21T03:06:44;95037.28;;;2.06;100.00
40245;BME280;25963;42.694;23.600;2023-11-21T03:09:10;95044.75;;;2.09;100.00
40245;BME280;25963;42.694;23.600;2023-11-21T03:11:39;95039.72;;;2.08;100.00
40245;BME280;25963;42.694;23.600;2023-11-21T03:14:04;95046.72;;;2.07;100.00
40245;BME280;25963;42.694;23.600;2023-11-21T03:16:32;95044.06;;;2.15;100.00
40245;BME280;25963;42.694;23.600;2023-11-21T03:18:57;95040.53;;;2.08;100.00
40245;BME280;25963;42.694;23.600;2023-11-21T03:21:24;95047.66;;;2.14;100.00
40245;BME280;25963;42.694;23.600;2023-11-21T03:23:50;95037.78;;;2.10;100.00
40245;BME280;25963;42.694;23.600;2023-11-21T03:26:15;95054.81;;;2.12;100.00
40245;BME280;25963;42.694;23.600;2023-11-21T03:28:41;95045.41;;;2.03;100.00
40245;BME280;25963;42.694;23.600;2023-11-21T03:31:07;95010.31;;;1.91;100.00
40245;BME280;25963;42.694;23.600;2023-11-21T03:33:34;95028.72;;;1.89;100.00
40245;BME280;25963;42.694;23.600;2023-11-21T03:36:00;95012.59;;;1.94;100.00
40245;BME280;25963;42.694;23.600;2023-11-21T03:38:26;95009.84;;;1.87;100.00
40245;BME280;25963;42.694;23.600;2023-11-21T03:40:51;95023.19;;;1.92;100.00
40245;BME280;25963;42.694;23.600;2023-11-21T03:43:17;95029.13;;;2.09;100.00
40245;BME280;25963;42.694;23.600;2023-11-21T03:45:42;95029.78;;;2.11;100.00
40245;BME280;25963;42.694;23.600;2023-11-21T03:48:08;95054.97;;;2.19;100.00
40245;BME280;25963;42.694;23.600;2023-11-21T03:50:34;95030.63;;;2.03;100.00
40245;BME280;25963;42.694;23.600;2023-11-21T03:52:59;95059.00;;;2.21;100.00
40245;BME280;25963;42.694;23.600;2023-11-21T03:55:25;95031.78;;;2.01;100.00
40245;BME280;25963;42.694;23.600;2023-11-21T03:57:51;95057.25;;;2.14;100.00
40245;BME280;25963;42.694;23.600;2023-11-21T04:00:17;95030.78;;;2.10;100.00
40245;BME280;25963;42.694;23.600;2023-11-21T04:02:42;95026.53;;;2.09;100.00
40245;BME280;25963;42.694;23.600;2023-11-21T04:05:08;95039.81;;;2.22;100.00
40245;BME280;25963;42.694;23.600;2023-11-21T04:07:35;95032.47;;;1.87;100.00
40245;BME280;25963;42.694;23.600;2023-11-21T04:10:00;95025.91;;;2.07;100.00
40245;BME280;25963;42.694;23.600;2023-11-21T04:12:26;95012.47;;;1.79;100.00
40245;BME280;25963;42.694;23.600;2023-11-21T04:14:51;95021.31;;;1.62;100.00
40245;BME280;25963;42.694;23.600;2023-11-21T04:17:20;95027.41;;;1.85;100.00
40245;BME280;25963;42.694;23.600;2023-11-21T04:19:46;95030.19;;;1.92;100.00
40245;BME280;25963;42.694;23.600;2023-11-21T04:22:11;95040.53;;;2.00;100.00
40245;BME280;25963;42.694;23.600;2023-11-21T04:24:37;95022.06;;;1.78;100.00
40245;BME280;25963;42.694;23.600;2023-11-21T04:27:03;95025.91;;;1.99;100.00
40245;BME280;25963;42.694;23.600;2023-11-21T04:29:28;95033.88;;;2.05;100.00
40245;BME280;25963;42.694;23.600;2023-11-21T04:31:54;95020.09;;;1.89;100.00
40245;BME280;25963;42.694;23.600;2023-11-21T04:34:19;95025.47;;;1.87;100.00
40245;BME280;25963;42.694;23.600;2023-11-21T04:36:45;95022.06;;;1.87;100.00
40245;BME280;25963;42.694;23.600;2023-11-21T04:39:10;95009.13;;;1.46;100.00
40245;BME280;25963;42.694;23.600;2023-11-21T04:41:36;95010.91;;;1.45;100.00
40245;BME280;25963;42.694;23.600;2023-11-21T04:44:07;94992.72;;;1.45;100.00
40245;BME280;25963;42.694;23.600;2023-11-21T04:46:32;94998.63;;;1.23;100.00
40245;BME280;25963;42.694;23.600;2023-11-21T04:48:58;95020.19;;;1.40;100.00
40245;BME280;25963;42.694;23.600;2023-11-21T04:51:24;95006.53;;;1.62;100.00
40245;BME280;25963;42.694;23.600;2023-11-21T04:53:49;95019.31;;;1.80;100.00
40245;BME280;25963;42.694;23.600;2023-11-21T04:56:15;94997.84;;;1.78;100.00
40245;BME280;25963;42.694;23.600;2023-11-21T04:58:41;95011.06;;;1.60;100.00
40245;BME280;25963;42.694;23.600;2023-11-21T05:01:07;95007.66;;;1.68;100.00
40245;BME280;25963;42.694;23.600;2023-11-21T05:03:33;95022.59;;;1.74;100.00
40245;BME280;25963;42.694;23.600;2023-11-21T05:05:59;95035.41;;;1.83;100.00
40245;BME280;25963;42.694;23.600;2023-11-21T05:08:25;95036.97;;;2.01;100.00
40245;BME280;25963;42.694;23.600;2023-11-21T05:10:51;95021.38;;;2.01;100.00
40245;BME280;25963;42.694;23.600;2023-11-21T05:13:17;95025.91;;;2.07;100.00
40245;BME280;25963;42.694;23.600;2023-11-21T05:15:44;95013.22;;;2.04;100.00
40245;BME280;25963;42.694;23.600;2023-11-21T05:18:09;95012.50;;;2.18;100.00
40245;BME280;25963;42.694;23.600;2023-11-21T05:20:35;94998.41;;;2.13;100.00
40245;BME280;25963;42.694;23.600;2023-11-21T05:23:01;95017.22;;;2.23;100.00
40245;BME280;25963;42.694;23.600;2023-11-21T05:25:26;95004.41;;;2.13;100.00
40245;BME280;25963;42.694;23.600;2023-11-21T05:27:52;94984.84;;;1.86;100.00
40245;BME280;25963;42.694;23.600;2023-11-21T05:30:20;95009.44;;;2.15;100.00
40245;BME280;25963;42.694;23.600;2023-11-21T05:32:46;94993.03;;;2.06;100.00
40245;BME280;25963;42.694;23.600;2023-11-21T05:35:12;94992.69;;;2.09;100.00
40245;BME280;25963;42.694;23.600;2023-11-21T05:37:41;95001.47;;;2.16;100.00
40245;BME280;25963;42.694;23.600;2023-11-21T05:40:07;95024.66;;;2.34;100.00
40245;BME280;25963;42.694;23.600;2023-11-21T05:42:34;95008.25;;;2.25;100.00
40245;BME280;25963;42.694;23.600;2023-11-21T05:45:00;95021.53;;;2.39;100.00
40245;BME280;25963;42.694;23.600;2023-11-21T05:47:44;95021.19;;;2.42;100.00
40245;BME280;25963;42.694;23.600;2023-11-21T05:50:12;95031.69;;;2.57;100.00
40245;BME280;25963;42.694;23.600;2023-11-21T05:52:40;95015.34;;;2.40;100.00
40245;BME280;25963;42.694;23.600;2023-11-21T05:55:06;95007.22;;;2.43;100.00
40245;BME280;25963;42.694;23.600;2023-11-21T05:57:35;95018.09;;;2.46;100.00
40245;BME280;25963;42.694;23.600;2023-11-21T06:00:08;95043.06;;;2.64;100.00
40245;BME280;25963;42.694;23.600;2023-11-21T06:02:41;95030.63;;;2.74;100.00
40245;BME280;25963;42.694;23.600;2023-11-21T06:05:07;95017.78;;;2.72;100.00
40245;BME280;25963;42.694;23.600;2023-11-21T06:07:33;95031.34;;;2.91;100.00
40245;BME280;25963;42.694;23.600;2023-11-21T06:09:59;95031.00;;;2.94;100.00
40245;BME280;25963;42.694;23.600;2023-11-21T06:12:24;95017.38;;;3.07;100.00
40245;BME280;25963;42.694;23.600;2023-11-21T06:14:50;95018.66;;;3.11;100.00
40245;BME280;25963;42.694;23.600;2023-11-21T06:17:16;95007.72;;;3.15;100.00
40245;BME280;25963;42.694;23.600;2023-11-21T06:19:58;95043.66;;;3.43;100.00
40245;BME280;25963;42.694;23.600;2023-11-21T06:22:23;95020.81;;;3.45;100.00
40245;BME280;25963;42.694;23.600;2023-11-21T06:24:49;95013.28;;;3.50;100.00
40245;BME280;25963;42.694;23.600;2023-11-21T06:27:17;95022.31;;;3.62;100.00
40245;BME280;25963;42.694;23.600;2023-11-21T06:29:43;95034.03;;;3.81;100.00
40245;BME280;25963;42.694;23.600;2023-11-21T06:32:08;95001.78;;;3.59;100.00
40245;BME280;25963;42.694;23.600;2023-11-21T06:34:34;95019.59;;;3.71;100.00
40245;BME280;25963;42.694;23.600;2023-11-21T06:37:09;95026.63;;;3.85;100.00
40245;BME280;25963;42.694;23.600;2023-11-21T06:39:35;95038.81;;;3.93;100.00
40245;BME280;25963;42.694;23.600;2023-11-21T06:45:20;95036.81;;;4.09;100.00
40245;BME280;25963;42.694;23.600;2023-11-21T06:48:31;95058.88;;;4.37;100.00
40245;BME280;25963;42.694;23.600;2023-11-21T06:50:56;95057.31;;;4.57;100.00
40245;BME280;25963;42.694;23.600;2023-11-21T06:53:22;95057.16;;;4.58;100.00
40245;BME280;25963;42.694;23.600;2023-11-21T06:55:47;95035.44;;;4.58;100.00
40245;BME280;25963;42.694;23.600;2023-11-21T06:58:13;95028.56;;;4.72;100.00
40245;BME280;25963;42.694;23.600;2023-11-21T07:00:40;95051.13;;;4.94;100.00
40245;BME280;25963;42.694;23.600;2023-11-21T07:03:05;95040.53;;;5.02;100.00
40245;BME280;25963;42.694;23.600;2023-11-21T07:05:30;95046.28;;;5.13;100.00
40245;BME280;25963;42.694;23.600;2023-11-21T07:07:56;95033.09;;;5.21;100.00
40245;BME280;25963;42.694;23.600;2023-11-21T07:10:21;95037.88;;;5.39;100.00
40245;BME280;25963;42.694;23.600;2023-11-21T07:12:47;95016.97;;;5.39;100.00
40245;BME280;25963;42.694;23.600;2023-11-21T07:15:12;95055.59;;;5.65;100.00
40245;BME280;25963;42.694;23.600;2023-11-21T07:17:38;95034.06;;;5.63;100.00
40245;BME280;25963;42.694;23.600;2023-11-21T07:20:05;95032.91;;;5.72;100.00
40245;BME280;25963;42.694;23.600;2023-11-21T07:22:32;95028.06;;;5.69;100.00
40245;BME280;25963;42.694;23.600;2023-11-21T07:24:57;95046.47;;;5.82;100.00
40245;BME280;25963;42.694;23.600;2023-11-21T07:27:23;95022.66;;;5.49;100.00
40245;BME280;25963;42.694;23.600;2023-11-21T07:29:48;95040.44;;;5.82;100.00
40245;BME280;25963;42.694;23.600;2023-11-21T07:32:14;95031.38;;;5.84;100.00
40245;BME280;25963;42.694;23.600;2023-11-21T07:34:43;95030.91;;;5.96;100.00
40245;BME280;25963;42.694;23.600;2023-11-21T07:37:08;95030.59;;;6.12;100.00
40245;BME280;25963;42.694;23.600;2023-11-21T07:39:36;95041.69;;;6.14;100.00
40245;BME280;25963;42.694;23.600;2023-11-21T07:42:02;95038.69;;;6.17;100.00
40245;BME280;25963;42.694;23.600;2023-11-21T07:44:28;95040.38;;;6.31;100.00
40245;BME280;25963;42.694;23.600;2023-11-21T07:46:54;95014.09;;;6.18;100.00
40245;BME280;25963;42.694;23.600;2023-11-21T07:49:25;95033.19;;;6.47;100.00
40245;BME280;25963;42.694;23.600;2023-11-21T07:51:51;95043.56;;;6.68;100.00
40245;BME280;25963;42.694;23.600;2023-11-21T07:54:17;95032.13;;;6.82;100.00
40245;BME280;25963;42.694;23.600;2023-11-21T07:56:43;95022.88;;;6.93;100.00
40245;BME280;25963;42.694;23.600;2023-11-21T07:59:09;95017.84;;;6.92;100.00
40245;BME280;25963;42.694;23.600;2023-11-21T08:01:34;95019.91;;;7.23;100.00
40245;BME280;25963;42.694;23.600;2023-11-21T08:04:00;95015.28;;;7.25;100.00
40245;BME280;25963;42.694;23.600;2023-11-21T08:06:29;95005.19;;;7.35;100.00
40245;BME280;25963;42.694;23.600;2023-11-21T08:08:56;95020.72;;;7.50;100.00
40245;BME280;25963;42.694;23.600;2023-11-21T08:11:22;95022.56;;;7.56;100.00
40245;BME280;25963;42.694;23.600;2023-11-21T08:13:47;95020.53;;;7.58;100.00
40245;BME280;25963;42.694;23.600;2023-11-21T08:16:13;95020.13;;;7.61;100.00
40245;BME280;25963;42.694;23.600;2023-11-21T08:18:38;95004.41;;;7.54;100.00
40245;BME280;25963;42.694;23.600;2023-11-21T08:21:05;95000.53;;;7.44;100.00
40245;BME280;25963;42.694;23.600;2023-11-21T08:23:30;94988.44;;;7.43;100.00
40245;BME280;25963;42.694;23.600;2023-11-21T08:25:56;95004.00;;;7.58;100.00
40245;BME280;25963;42.694;23.600;2023-11-21T08:28:22;94991.47;;;7.53;100.00
40245;BME280;25963;42.694;23.600;2023-11-21T08:30:48;95000.34;;;7.65;100.00
40245;BME280;25963;42.694;23.600;2023-11-21T08:33:14;95016.88;;;7.92;100.00
40245;BME280;25963;42.694;23.600;2023-11-21T08:35:39;95016.47;;;8.09;100.00
40245;BME280;25963;42.694;23.600;2023-11-21T08:38:05;95019.69;;;8.11;100.00
40245;BME280;25963;42.694;23.600;2023-11-21T08:40:31;95005.94;;;8.15;100.00
40245;BME280;25963;42.694;23.600;2023-11-21T08:42:57;95005.72;;;8.23;98.87
40245;BME280;25963;42.694;23.600;2023-11-21T08:45:24;95014.81;;;8.41;99.62
40245;BME280;25963;42.694;23.600;2023-11-21T08:47:50;94996.19;;;8.36;100.00
40245;BME280;25963;42.694;23.600;2023-11-21T08:50:16;94994.56;;;8.48;100.00
40245;BME280;25963;42.694;23.600;2023-11-21T08:52:42;95005.19;;;8.66;96.53
40245;BME280;25963;42.694;23.600;2023-11-21T08:55:08;95009.72;;;8.91;98.38
40245;BME280;25963;42.694;23.600;2023-11-21T08:57:37;94997.59;;;8.90;97.42
40245;BME280;25963;42.694;23.600;2023-11-21T09:00:03;95002.59;;;9.05;93.87
40245;BME280;25963;42.694;23.600;2023-11-21T09:02:33;94989.13;;;9.20;92.63
40245;BME280;25963;42.694;23.600;2023-11-21T09:05:00;94979.53;;;9.32;98.61
40245;BME280;25963;42.694;23.600;2023-11-21T09:07:28;94933.44;;;9.23;95.38
40245;BME280;25963;42.694;23.600;2023-11-21T09:09:54;94973.31;;;9.51;93.16
40245;BME280;25963;42.694;23.600;2023-11-21T09:12:20;94953.16;;;9.38;89.21
40245;BME280;25963;42.694;23.600;2023-11-21T09:14:46;94944.72;;;9.55;90.94
40245;BME280;25963;42.694;23.600;2023-11-21T09:17:11;94971.38;;;9.90;88.90
40245;BME280;25963;42.694;23.600;2023-11-21T09:19:40;94959.78;;;9.91;90.55
40245;BME280;25963;42.694;23.600;2023-11-21T09:22:06;94955.84;;;10.00;89.84
40245;BME280;25963;42.694;23.600;2023-11-21T09:24:32;94949.69;;;10.06;87.35
40245;BME280;25963;42.694;23.600;2023-11-21T09:26:58;94921.22;;;9.78;87.14
40245;BME280;25963;42.694;23.600;2023-11-21T09:29:28;94940.91;;;9.94;84.68
40245;BME280;25963;42.694;23.600;2023-11-21T09:31:54;94929.81;;;9.67;85.90
40245;BME280;25963;42.694;23.600;2023-11-21T09:34:20;94909.78;;;9.41;88.06
40245;BME280;25963;42.694;23.600;2023-11-21T09:36:47;94886.25;;;9.46;89.28
40245;BME280;25963;42.694;23.600;2023-11-21T09:39:13;94865.59;;;9.25;91.29
40245;BME280;25963;42.694;23.600;2023-11-21T09:41:46;94860.31;;;9.50;92.93
40245;BME280;25963;42.694;23.600;2023-11-21T09:44:13;94874.28;;;9.00;94.92
40245;BME280;25963;42.694;23.600;2023-11-21T09:46:42;94841.94;;;9.18;97.44
40245;BME280;25963;42.694;23.600;2023-11-21T09:49:13;94857.75;;;9.43;95.17
40245;BME280;25963;42.694;23.600;2023-11-21T09:51:42;94854.50;;;9.41;95.51
40245;BME280;25963;42.694;23.600;2023-11-21T09:54:10;94834.66;;;9.82;93.06
40245;BME280;25963;42.694;23.600;2023-11-21T09:56:37;94831.97;;;10.19;89.17
40245;BME280;25963;42.694;23.600;2023-11-21T09:59:03;94805.34;;;10.27;88.60
40245;BME280;25963;42.694;23.600;2023-11-21T10:01:33;94814.09;;;10.21;86.95
40245;BME280;25963;42.694;23.600;2023-11-21T10:04:01;94816.47;;;9.92;86.20
40245;BME280;25963;42.694;23.600;2023-11-21T10:06:26;94802.84;;;10.32;86.61
40245;BME280;25963;42.694;23.600;2023-11-21T10:08:53;94818.00;;;10.48;84.49
40245;BME280;25963;42.694;23.600;2023-11-21T10:11:24;94780.41;;;10.23;85.62
40245;BME280;25963;42.694;23.600;2023-11-21T10:13:59;94788.00;;;10.61;83.04
40245;BME280;25963;42.694;23.600;2023-11-21T10:16:26;94756.16;;;10.74;80.92
40245;BME280;25963;42.694;23.600;2023-11-21T10:18:52;94757.88;;;11.16;80.99
40245;BME280;25963;42.694;23.600;2023-11-21T10:21:21;94772.19;;;11.55;79.85
40245;BME280;25963;42.694;23.600;2023-11-21T10:23:47;94773.50;;;11.93;77.28
40245;BME280;25963;42.694;23.600;2023-11-21T10:26:13;94775.84;;;12.18;76.50
40245;BME280;25963;42.694;23.600;2023-11-21T10:28:54;94741.41;;;12.30;77.83
40245;BME280;25963;42.694;23.600;2023-11-21T10:31:21;94767.44;;;12.84;77.79
40245;BME280;25963;42.694;23.600;2023-11-21T10:33:46;94759.16;;;12.97;73.88
40245;BME280;25963;42.694;23.600;2023-11-21T10:36:11;94748.94;;;13.22;74.71
40245;BME280;25963;42.694;23.600;2023-11-21T10:38:42;94753.91;;;13.19;74.36
40245;BME280;25963;42.694;23.600;2023-11-21T10:41:11;94760.59;;;13.60;76.14
40245;BME280;25963;42.694;23.600;2023-11-21T10:43:38;94743.72;;;13.66;71.89
40245;BME280;25963;42.694;23.600;2023-11-21T10:46:04;94756.44;;;13.64;72.78
40245;BME280;25963;42.694;23.600;2023-11-21T10:48:31;94747.06;;;13.40;69.99
40245;BME280;25963;42.694;23.600;2023-11-21T10:50:58;94740.94;;;13.34;70.80
40245;BME280;25963;42.694;23.600;2023-11-21T10:53:28;94753.31;;;13.73;71.15
40245;BME280;25963;42.694;23.600;2023-11-21T10:56:01;94740.88;;;13.95;71.22
40245;BME280;25963;42.694;23.600;2023-11-21T10:58:29;94744.88;;;13.76;69.43
40245;BME280;25963;42.694;23.600;2023-11-21T11:00:55;94737.44;;;13.95;68.49
40245;BME280;25963;42.694;23.600;2023-11-21T11:03:22;94738.53;;;14.26;69.78
40245;BME280;25963;42.694;23.600;2023-11-21T11:05:49;94720.63;;;14.11;67.75
40245;BME280;25963;42.694;23.600;2023-11-21T11:08:16;94720.19;;;14.19;68.63
40245;BME280;25963;42.694;23.600;2023-11-21T11:10:45;94727.75;;;13.83;64.96
40245;BME280;25963;42.694;23.600;2023-11-21T11:13:13;94726.03;;;13.50;66.28
40245;BME280;25963;42.694;23.600;2023-11-21T11:15:40;94740.41;;;12.98;68.04
40245;BME280;25963;42.694;23.600;2023-11-21T11:18:06;94737.16;;;13.30;68.11
40245;BME280;25963;42.694;23.600;2023-11-21T11:20:37;94728.22;;;13.36;67.61
40245;BME280;25963;42.694;23.600;2023-11-21T11:23:46;94731.31;;;13.50;69.43
40245;BME280;25963;42.694;23.600;2023-11-21T11:26:37;94736.72;;;13.21;70.26
40245;BME280;25963;42.694;23.600;2023-11-21T11:32:22;94721.19;;;13.25;69.85
40245;BME280;25963;42.694;23.600;2023-11-21T11:35:01;94702.75;;;13.13;70.17
40245;BME280;25963;42.694;23.600;2023-11-21T11:37:29;94706.16;;;13.31;71.76
40245;BME280;25963;42.694;23.600;2023-11-21T11:39:55;94698.25;;;13.14;70.14
40245;BME280;25963;42.694;23.600;2023-11-21T11:42:21;94696.13;;;13.33;71.12
40245;BME280;25963;42.694;23.600;2023-11-21T11:44:49;94692.63;;;13.49;72.20
40245;BME280;25963;42.694;23.600;2023-11-21T11:47:23;94683.25;;;13.41;69.38
40245;BME280;25963;42.694;23.600;2023-11-21T11:50:09;94679.81;;;13.41;70.68
40245;BME280;25963;42.694;23.600;2023-11-21T11:52:46;94690.59;;;13.56;70.46
40245;BME280;25963;42.694;23.600;2023-11-21T11:55:13;94686.88;;;13.57;70.92
40245;BME280;25963;42.694;23.600;2023-11-21T11:57:40;94684.25;;;13.57;69.38
40245;BME280;25963;42.694;23.600;2023-11-21T12:02:58;94678.75;;;13.42;69.17
40245;BME280;25963;42.694;23.600;2023-11-21T12:05:25;94657.50;;;12.98;69.02
40245;BME280;25963;42.694;23.600;2023-11-21T12:08:00;94687.97;;;13.17;69.43
40245;BME280;25963;42.694;23.600;2023-11-21T12:10:28;94686.06;;;12.96;74.70
40245;BME280;25963;42.694;23.600;2023-11-21T12:12:58;94682.94;;;12.99;72.61
40245;BME280;25963;42.694;23.600;2023-11-21T12:15:24;94684.47;;;12.95;72.67
40245;BME280;25963;42.694;23.600;2023-11-21T12:17:51;94680.97;;;12.89;74.16
40245;BME280;25963;42.694;23.600;2023-11-21T12:20:24;94678.06;;;12.91;74.23
40245;BME280;25963;42.694;23.600;2023-11-21T12:22:55;94663.72;;;12.87;72.94
40245;BME280;25963;42.694;23.600;2023-11-21T12:25:24;94678.81;;;12.69;74.11
40245;BME280;25963;42.694;23.600;2023-11-21T12:27:52;94687.47;;;12.82;75.79
40245;BME280;25963;42.694;23.600;2023-11-21T12:30:20;94672.81;;;12.57;74.35
40245;BME280;25963;42.694;23.600;2023-11-21T12:32:51;94674.47;;;12.46;76.42
40245;BME280;25963;42.694;23.600;2023-11-21T12:35:23;94666.53;;;12.13;80.02
40245;BME280;25963;42.694;23.600;2023-11-21T12:37:49;94695.88;;;12.28;79.77
40245;BME280;25963;42.694;23.600;2023-11-21T12:40:15;94671.56;;;12.14;82.64
40245;BME280;25963;42.694;23.600;2023-11-21T12:42:42;94694.19;;;12.22;81.40
40245;BME280;25963;42.694;23.600;2023-11-21T12:45:09;94683.66;;;12.10;84.11
40245;BME280;25963;42.694;23.600;2023-11-21T12:47:44;94702.00;;;12.00;84.72
40245;BME280;25963;42.694;23.600;2023-11-21T12:50:10;94709.94;;;12.00;86.00
40245;BME280;25963;42.694;23.600;2023-11-21T12:52:47;94680.19;;;11.93;86.64
40245;BME280;25963;42.694;23.600;2023-11-21T12:55:22;94701.13;;;12.11;87.91
40245;BME280;25963;42.694;23.600;2023-11-21T12:57:52;94684.25;;;11.72;87.33
40245;BME280;25963;42.694;23.600;2023-11-21T13:00:22;94691.50;;;11.76;87.42
40245;BME280;25963;42.694;23.600;2023-11-21T13:02:57;94697.19;;;11.97;87.79